Catàleg de serveis del Meteocat
Campanya meteocatpedra

Dades de l'estació automàtica Terrassa

?
?
Resum diari 22:00 TU
Dades diàries de l'estació meteorològica
Temperatura mitjana 8.6 °C
Temperatura màxima 15.0 °C 13:21 TU
Temperatura mínima 5.5 °C 1:44 TU
Humitat relativa mitjana 79%
Precipitació acumulada 0.0 mm
Ratxa màxima del vent (10 m) 25.2 km/h - 244º 15:42 TU
Irradiació solar global 5.3 MJ/m2

El tram horari està expressat en Temps Universal (TU). Cal sumar una hora en horari d'hivern i dues en horari d'estiu per passar a l'hora oficial.

Terrassa

Metadades estació meteorol´gica
Municipi Terrassa
Comarca Vallès Occidental
Altitud 313 m
Data alta 20.12.2018
Estat actual Operativa
Dades de període
Període
TU
TM
°C
TX
°C
TN
°C
HRM
%
PPT
mm
VVM (10 m)
km/h
DVM (10 m)
graus
VVX (10 m)
km/h
RS
W/m2
00:00 - 00:30 8.0 8.9 7.3 75 0.0 4.7 272 11.2 0
00:30 - 01:00 7.3 7.7 6.7 79 0.0 4.3 220 11.5 0
01:00 - 01:30 6.8 7.2 6.2 81 0.0 5.4 243 10.4 0
01:30 - 02:00 6.0 6.4 5.5 85 0.0 5.4 266 10.4 0
02:00 - 02:30 7.3 8.0 6.5 79 0.0 5.8 301 8.6 0
02:30 - 03:00 6.3 6.8 6.0 84 0.0 4.7 274 7.9 0
03:00 - 03:30 6.4 6.9 6.0 83 0.0 6.1 281 13.3 0
03:30 - 04:00 6.9 7.9 6.1 80 0.0 7.6 332 16.2 0
04:00 - 04:30 7.4 8.7 5.9 78 0.0 6.1 286 13.0 0
04:30 - 05:00 5.8 5.9 5.6 87 0.0 6.1 248 9.4 0
05:00 - 05:30 5.8 6.2 5.6 87 0.0 5.0 242 9.7 0
05:30 - 06:00 6.4 6.6 6.3 83 0.0 2.9 213 7.6 0
06:00 - 06:30 7.2 7.6 6.8 79 0.0 7.2 88 11.5 0
06:30 - 07:00 7.4 7.5 7.4 79 0.0 4.0 72 10.8 2
07:00 - 07:30 7.4 7.5 7.4 83 0.0 2.9 243 5.8 8
07:30 - 08:00 7.5 7.6 7.3 81 0.0 5.4 250 7.9 12
08:00 - 08:30 7.2 7.3 7.1 82 0.0 6.1 246 10.4 11
08:30 - 09:00 6.9 7.1 6.7 84 0.0 7.9 250 11.5 20
09:00 - 09:30 6.9 7.0 6.7 86 0.0 6.1 243 9.4 21
09:30 - 10:00 7.1 7.4 6.8 85 0.0 7.2 269 15.5 42
10:00 - 10:30 7.6 8.2 7.4 83 0.0 6.5 269 14.8 94
10:30 - 11:00 8.3 8.5 8.1 82 0.0 4.7 252 9.0 79
11:00 - 11:30 8.9 9.3 8.5 80 0.0 4.0 248 7.9 107
11:30 - 12:00 10.0 10.5 9.4 77 0.0 5.4 255 10.8 208
12:00 - 12:30 11.5 13.0 10.5 71 0.0 7.2 262 15.8 383
12:30 - 13:00 13.2 14.1 12.6 64 0.0 8.6 256 16.9 391
13:00 - 13:30 14.1 15.0 12.9 61 0.0 9.7 248 16.9 456
13:30 - 14:00 14.4 14.9 13.3 60 0.0 10.4 237 16.9 385
14:00 - 14:30 14.4 14.6 14.2 62 0.0 11.2 238 18.7 320
14:30 - 15:00 14.2 14.4 14.0 64 0.0 9.7 230 16.6 245
15:00 - 15:30 13.6 14.1 13.2 67 0.0 10.4 232 19.4 143
15:30 - 16:00 12.4 13.1 12.0 72 0.0 13.3 230 25.2 74
16:00 - 16:30 11.3 11.9 10.4 76 0.0 10.4 226 18.7 20
16:30 - 17:00 9.5 10.4 8.8 83 0.0 7.9 234 12.2 0
17:00 - 17:30 8.7 9.1 8.4 83 0.0 5.0 258 12.2 0
17:30 - 18:00 8.8 9.1 8.3 80 0.0 2.5 272 5.4 0
18:00 - 18:30 7.9 8.3 7.5 84 0.0 4.3 247 10.4 0
18:30 - 19:00 7.5 8.0 6.9 86 0.0 5.0 248 9.4 0
19:00 - 19:30 8.1 8.8 6.8 84 0.0 1.8 41 6.1 0
19:30 - 20:00 8.0 8.5 7.6 84 0.0 2.2 45 4.0 0
20:00 - 20:30 7.2 8.0 6.5 88 0.0 3.6 262 6.1 0
20:30 - 21:00 7.4 7.8 6.6 87 0.0 3.6 109 6.8 0
21:00 - 21:30 8.1 8.4 7.8 83 0.0 4.0 87 7.6 0
21:30 - 22:00 7.4 8.0 6.5 85 0.0 3.6 354 7.9 0
22:00 - 22:30 6.8 7.1 6.4 83 0.0 4.3 261 7.9 0
22:30 - 23:00 6.1 6.9 5.6 84 0.0 3.6 258 8.6 0

Les dades en taronja només han passat un control de qualitat automàtic. Resta pendent la seva validació definitiva.